Trinity Center, CA

11:05 AM PDT on September 19, 2017 (GMT -0700)
Trinity Center

Weather History for KO86 - October, 2013

Change the Weather History Date:

Wednesday, October 23, 2013

  Actual Average (KMHS) Record (KMHS)
Temperature  
Mean Temperature 56 °F -  
Max Temperature 78 °F 58 °F 81 °F (1965)
Min Temperature 33 °F 33 °F 22 °F (1935)
Degree Days  
Heating Degree Days 10    
Growing Degree Days 6 (Base 50)    
Moisture  
Dew Point 31 °F    
Average Humidity 54    
Maximum Humidity 87    
Minimum Humidity 15    
Precipitation  
Precipitation 0.00 in - - ()
Sea Level Pressure  
Sea Level Pressure 30.03 in    
Wind  
Wind Speed 2 mph (West)    
Max Wind Speed 6 mph    
Max Gust Speed -    
Visibility 10 miles    
Events      
Averages and records for this station are not official NWS values.
T = Trace of Precipitation, MM = Missing Value Source: NWS Daily Summary

Daily Weather History Graph

Daily Weather History Graph

Search for Another Location

Airport or City:

Trip Planner

Search our weather history database for the weather conditions in past years. The results will help you decide how hot, cold, wet, or windy it might be!

Date:

Astronomy

Oct. 23, 2013 Rise Set
Actual Time 7:31 AM PDT 6:17 PM PDT
Civil Twilight 7:03 AM PDT 6:45 PM PDT
Nautical Twilight 6:31 AM PDT 7:18 PM PDT
Astronomical Twilight 5:59 AM PDT 7:49 PM PDT
Moon 9:52 PM PDT (10/23) 11:53 AM PDT (10/23)
Length of Visible Light 11h 42m
Length of Day
10h 46m
Waning Gibbous, 78% of the Moon is Illuminated
Oct 23
Waning Gibbous
Oct 26
Last Quarter
Nov 3
New
Nov 9
First Quarter
Nov 17
Full

Hourly Weather History & Observations

Time (PDT) Temp. Windchill Dew Point Humidity Pressure Visibility Wind Dir Wind Speed Gust Speed Precip Events Conditions
12:10 AM 42.8 °F 41.1 °F 32.0 °F 66% 30.07 in 10.0 mi WNW 3.5 mph - N/A   Clear
12:30 AM 41.0 °F 39.0 °F 32.0 °F 70% 30.07 in 10.0 mi WNW 3.5 mph - N/A   Clear
12:50 AM 41.0 °F 39.0 °F 32.0 °F 70% 30.07 in 10.0 mi West 3.5 mph - N/A   Clear
1:10 AM 41.0 °F - 32.0 °F 70% 30.07 in 10.0 mi Calm Calm - N/A   Clear
1:30 AM 39.2 °F 35.9 °F 32.0 °F 75% 30.07 in 10.0 mi West 4.6 mph - N/A   Clear
1:50 AM 39.2 °F 37.0 °F 32.0 °F 75% 30.07 in 10.0 mi West 3.5 mph - N/A   Clear
2:10 AM 39.2 °F 37.0 °F 32.0 °F 75% 30.07 in 10.0 mi West 3.5 mph - N/A   Clear
2:30 AM 39.2 °F - 32.0 °F 75% 30.07 in 10.0 mi Calm Calm - N/A   Clear
2:50 AM 39.2 °F - 32.0 °F 75% 30.07 in 10.0 mi Calm Calm - N/A   Clear
3:10 AM 37.4 °F 34.9 °F 32.0 °F 81% 30.07 in 10.0 mi West 3.5 mph - N/A   Clear
3:30 AM 37.4 °F - 32.0 °F 81% 30.07 in 10.0 mi Calm Calm - N/A   Clear
3:50 AM 37.4 °F 34.9 °F 32.0 °F 81% 30.07 in 10.0 mi West 3.5 mph - N/A   Clear
4:10 AM 37.4 °F 34.9 °F 32.0 °F 81% 30.07 in 10.0 mi West 3.5 mph - N/A   Clear
4:30 AM 37.4 °F - 32.0 °F 81% 30.07 in 10.0 mi Calm Calm - N/A   Clear
4:50 AM 37.4 °F 34.9 °F 32.0 °F 81% 30.07 in 10.0 mi West 3.5 mph - N/A   Clear
5:10 AM 35.6 °F 32.8 °F 32.0 °F 87% 30.07 in 10.0 mi West 3.5 mph - N/A   Clear
5:30 AM 35.6 °F 32.8 °F 30.2 °F 81% 30.08 in 10.0 mi West 3.5 mph - N/A   Clear
5:50 AM 35.6 °F - 30.2 °F 81% 30.08 in 10.0 mi Calm Calm - N/A   Clear
6:10 AM 35.6 °F 32.8 °F 30.2 °F 81% 30.07 in 10.0 mi West 3.5 mph - N/A   Clear
6:30 AM 35.6 °F 32.8 °F 30.2 °F 81% 30.07 in 10.0 mi West 3.5 mph - N/A   Clear
6:50 AM 35.6 °F - 30.2 °F 81% 30.08 in 10.0 mi Calm Calm - N/A   Clear
7:10 AM 35.6 °F 32.8 °F 28.4 °F 75% 30.07 in 10.0 mi West 3.5 mph - N/A   Clear
7:30 AM 35.6 °F - 28.4 °F 75% 30.08 in 10.0 mi Calm Calm - N/A   Clear
7:50 AM 33.8 °F - 28.4 °F 81% 30.08 in 10.0 mi Calm Calm - N/A   Clear
8:10 AM 35.6 °F - 30.2 °F 81% 30.08 in 10.0 mi Calm Calm - N/A   Clear
8:30 AM 39.2 °F - 32.0 °F 75% 30.09 in 10.0 mi Calm Calm - N/A   Clear
8:50 AM 41.0 °F - 32.0 °F 70% 30.09 in 10.0 mi Calm Calm - N/A   Clear
9:10 AM 44.6 °F - 32.0 °F 61% 30.09 in 10.0 mi Calm Calm - N/A   Clear
9:30 AM 44.6 °F - 33.8 °F 66% 30.09 in 10.0 mi Calm Calm - N/A   Clear
9:50 AM 46.4 °F - 32.0 °F 57% 30.08 in 10.0 mi Calm Calm - N/A   Clear
10:10 AM 48.2 °F - 32.0 °F 54% 30.08 in 10.0 mi Calm Calm - N/A   Clear
10:30 AM 50.0 °F - 28.4 °F 43% 30.07 in 10.0 mi Calm Calm - N/A   Clear
10:50 AM 51.8 °F - 28.4 °F 41% 30.07 in 10.0 mi Calm Calm - N/A   Clear
11:10 AM 55.4 °F - 28.4 °F 36% 30.06 in 10.0 mi Calm Calm - N/A   Clear
11:30 AM 57.2 °F - 32.0 °F 38% 30.05 in 10.0 mi SE 3.5 mph - N/A   Clear
11:50 AM 57.2 °F - 32.0 °F 38% 30.04 in 10.0 mi Calm Calm - N/A   Clear
12:10 PM 60.8 °F - 28.4 °F 29% 30.04 in 10.0 mi Calm Calm - N/A   Clear
12:30 PM 62.6 °F - 26.6 °F 26% 30.03 in 10.0 mi SSE 3.5 mph - N/A   Clear
12:50 PM 64.4 °F - 28.4 °F 26% 30.02 in 10.0 mi Calm Calm - N/A   Clear
1:10 PM 66.2 °F - 28.4 °F 24% 30.01 in 10.0 mi Calm Calm - N/A   Clear
1:30 PM 68.0 °F - 28.4 °F 23% 30.00 in 10.0 mi Calm Calm - N/A   Clear
1:50 PM 71.6 °F - 28.4 °F 20% 29.99 in 10.0 mi SE 3.5 mph - N/A   Clear
2:10 PM 71.6 °F - 28.4 °F 20% 29.98 in 10.0 mi Calm Calm - N/A   Clear
2:30 PM 73.4 °F - 26.6 °F 18% 29.97 in 10.0 mi SE 3.5 mph - N/A   Clear
2:50 PM 75.2 °F - 30.2 °F 19% 29.96 in 10.0 mi Calm Calm - N/A   Clear
3:10 PM 75.2 °F - 30.2 °F 19% 29.96 in 10.0 mi Calm Calm - N/A   Clear
3:30 PM 77.0 °F - 30.2 °F 18% 29.96 in 10.0 mi Calm Calm - N/A   Clear
3:50 PM 77.0 °F - 30.2 °F 18% 29.95 in 10.0 mi Calm Calm - N/A   Clear
4:10 PM 78.8 °F - 26.6 °F 15% 29.95 in 10.0 mi Calm Calm - N/A   Clear
4:30 PM 77.0 °F - 28.4 °F 17% 29.95 in 10.0 mi Calm Calm - N/A   Clear
4:50 PM 73.4 °F - 32.0 °F 22% 29.94 in 10.0 mi Calm Calm - N/A   Clear
5:10 PM 68.0 °F - 37.4 °F 33% 29.94 in 10.0 mi Calm Calm - N/A   Clear
5:30 PM 66.2 °F - 37.4 °F 35% 29.94 in 10.0 mi West 3.5 mph - N/A   Clear
5:50 PM 66.2 °F - 32.0 °F 28% 29.94 in 10.0 mi West 5.8 mph - N/A   Clear
6:10 PM 66.2 °F - 32.0 °F 28% 29.95 in 10.0 mi West 5.8 mph - N/A   Clear
6:30 PM 62.6 °F - 32.0 °F 32% 29.95 in 10.0 mi Calm Calm - N/A   Clear
6:50 PM 60.8 °F - 32.0 °F 34% 29.96 in 10.0 mi West 5.8 mph - N/A   Clear
7:10 PM 55.4 °F - 33.8 °F 44% 29.97 in 10.0 mi Calm Calm - N/A   Clear
7:30 PM 53.6 °F - 33.8 °F 47% 29.98 in 10.0 mi West 4.6 mph - N/A   Clear
7:50 PM 51.8 °F - 32.0 °F 47% 29.98 in 10.0 mi Calm Calm - N/A   Clear
8:10 PM 50.0 °F - 32.0 °F 50% 29.99 in 10.0 mi West 4.6 mph - N/A   Clear
8:30 PM 50.0 °F - 32.0 °F 50% 29.99 in 10.0 mi WSW 3.5 mph - N/A   Clear
8:50 PM 48.2 °F - 32.0 °F 54% 30.00 in 10.0 mi West 3.5 mph - N/A   Clear
9:10 PM 46.4 °F 45.2 °F 32.0 °F 57% 30.00 in 10.0 mi West 3.5 mph - N/A   Clear
9:30 PM 46.4 °F 44.3 °F 32.0 °F 57% 30.01 in 10.0 mi West 4.6 mph - N/A   Clear
9:50 PM 46.4 °F - 32.0 °F 57% 30.01 in 10.0 mi Calm Calm - N/A   Clear
10:10 PM 44.6 °F 43.1 °F 32.0 °F 61% 30.02 in 10.0 mi West 3.5 mph - N/A   Clear
10:30 PM 44.6 °F - 32.0 °F 61% 30.02 in 10.0 mi Calm Calm - N/A   Clear
10:50 PM 42.8 °F 40.1 °F 32.0 °F 66% 30.03 in 10.0 mi West 4.6 mph - N/A   Clear
11:10 PM 42.8 °F - 30.2 °F 61% 30.03 in 10.0 mi Calm Calm - N/A   Clear
11:30 PM 42.8 °F 41.1 °F 30.2 °F 61% 30.04 in 10.0 mi NW 3.5 mph - N/A   Clear
11:50 PM 41.0 °F - 30.2 °F 65% 30.04 in 10.0 mi Calm Calm - N/A   Clear